Main page
METAR-TAF:

METAR-TAF

Airports :

Base Aérea de Armilla

Granada, Spain

latitude: 37-08N, longitude: 003-38-08W, elevation: 700 m

Current weather observation

The report was made 15 hours and 25 minutes ago, at 14:00 UTC
Wind 2 kt from variable directions
Temperature 14°C
Humidity 55%
Pressure 1012 hPa
Visibility 10 km or more
Few clouds at a height of 7000 ft

METAR: LEGA 071400Z VRB02KT 9999 FEW070 14/05 Q1012

Time: 06:25 (05:25 UTC)

Forecast

The report was made 18 hours and 25 minutes ago, at 11:00 UTC
Forecast valid from 07 at 12 UTC to 08 at 12 UTC
Wind 2 kt from variable directions
Visibility 10 km or more
Few clouds at a height of 3000 ft
Becoming
from 07 at 15 UTC to 07 at 17 UTC
Wind 12 kt from the South
Temporary
from 08 at 03 UTC to 08 at 12 UTC
Wind 18 kt from the South with gusts up to 33 kt
Visibility: 4000 m
Broken clouds at a height of 1400 ft
rain, mist

TAF: LEGA 071100Z 0712/0812 VRB02KT 9999 FEW030 TX18/0715Z TN10/0807Z BECMG 0715/0717 18012KT TEMPO 0803/0812 18018G33KT 4000 RA BR BKN014

Weather observations and forecasts of more than 4000 airports (METAR and TAF reports).

The available stations are represented by yellow and red dots on the map.

Hover mouse over dot to see the name of the station.

Then click to see weather observations and forecasts.

To change the map : click on the green buttons with a black cross to zoom in, on the green button with a dash to zoom out, or on the green arrows for adjacent maps.


METAR-TAF: